Aérodrome :
LOGIN :

S'inscrire | Disclaimer

   EN    FR    IT 

 










Légende :    VFR   VFR Marginal   IFR   IFR Intensif   IFR Très Intensif
Visi : 
Plafond : 
>= 8 km
>= 3000ft
5 à 8 km
1000 à 3000 ft
1500m à 5 km
500 à 1000 ft
800 à 1500m
200 à 500 ft
< 800m
< 200 ft
Symboles :   Orages  Brouillard  Fortes neiges  Fortes précipitations  Vent > 20 kt
SIGMETs :   Divers  Orages  Givrage  Turbulence  Onde Orograph.  Cendres Volcan.






- Altitude de l'aérodrome : 284 ft


EGUW - RAF Wattisham

DERNIER METAR :
  • 241720Z 26019KT 9999 FEW018 SCT023 BKN250 11/09 Q1001 TEMPO SCT030 RMK WHT TEMPO BLU

METARs EXPIRÉS :
  • 241650Z 25020KT 9999 FEW015 SCT018 BKN023 11/09 Q1001 TEMPO SCT030 RMK WHT TEMPO BLU
  • 241620Z 25019KT 9999 FEW014 BKN020 11/09 Q1001 TEMPO SCT030 RMK WHT TEMPO BLU
  • 241610Z 25020KT 9999 FEW014 BKN015 BKN020 11/09 Q1001 TEMPO SCT030 RMK WHT TEMPO BLU
  • 241550Z 24020KT 9999 FEW013 BKN014 BKN020 11/09 Q1001 BECMG BKN015 RMK GRN BECMG WHT
  • 241520Z 24019KT 9999 -DZ BKN014 OVC020 11/09 Q1001 BECMG BKN015 RMK GRN BECMG WHT
  • 241450Z 23020KT 9999 FEW012 BKN013 OVC020 11/09 Q1001 BECMG BKN015 RMK GRN BECMG WHT

TAF TAF EGUW
Valide du 24 à 18h jusqu'au 25 à 03h UTC


241647Z 2418/2503 24020G30KT 9999 SCT030
BECMG 2419/2422 25012KT
PROB40
TEMPO 2422/2424 25015G25KT



MET'MAP, la Météo Aéronautique d'un coup d'oeil ! - Copyright ORBIFLY Décembre 2007 - Disclaimer

ORBIFLY MET'MAP TEAM :

Programmation & Développement : Alexandra Zaïnal
Sur une idée originale de : Baudouin d'Aumeries
Assistance à la programmation : Marc-Olivier Méhu
Soutien technique & logistique : Manuel Goepfert

Contact : metmap@orbifly.com




SOURCES & CREDITS :

   NOAA